sensor_id;sensor_type;location;lat;lon;timestamp;P1;durP1;ratioP1;P2;durP2;ratioP2
51010;SDS011;37038;50.182;8.624;2022-11-28T02:58:53;25.73;;;20.15;;
51010;SDS011;37038;50.182;8.624;2022-11-28T04:33:27;30.08;;;22.00;;
51010;SDS011;37038;50.182;8.624;2022-11-28T04:46:56;26.75;;;19.90;;
51010;SDS011;37038;50.182;8.624;2022-11-28T06:02:07;30.10;;;22.00;;
51010;SDS011;37038;50.182;8.624;2022-11-28T06:15:45;38.13;;;23.80;;
51010;SDS011;37038;50.182;8.624;2022-11-28T06:20:36;31.13;;;22.00;;
51010;SDS011;37038;50.182;8.624;2022-11-28T06:31:31;29.65;;;22.77;;
51010;SDS011;37038;50.182;8.624;2022-11-28T06:43:55;31.50;;;22.42;;
51010;SDS011;37038;50.182;8.624;2022-11-28T06:47:11;29.42;;;20.88;;
51010;SDS011;37038;50.182;8.624;2022-11-28T06:50:51;28.95;;;21.20;;
51010;SDS011;37038;50.182;8.624;2022-11-28T06:54:18;28.80;;;22.55;;
51010;SDS011;37038;50.182;8.624;2022-11-28T06:57:44;30.50;;;22.92;;
51010;SDS011;37038;50.182;8.624;2022-11-28T07:04:54;32.78;;;22.23;;
51010;SDS011;37038;50.182;8.624;2022-11-28T07:08:23;30.13;;;21.23;;
51010;SDS011;37038;50.182;8.624;2022-11-28T07:11:48;27.48;;;21.40;;
51010;SDS011;37038;50.182;8.624;2022-11-28T07:15:11;30.27;;;21.70;;
51010;SDS011;37038;50.182;8.624;2022-11-28T07:18:31;32.15;;;22.33;;
51010;SDS011;37038;50.182;8.624;2022-11-28T07:26:06;32.10;;;21.70;;
51010;SDS011;37038;50.182;8.624;2022-11-28T07:29:23;33.72;;;24.35;;
51010;SDS011;37038;50.182;8.624;2022-11-28T07:32:37;30.42;;;22.85;;
51010;SDS011;37038;50.182;8.624;2022-11-28T07:35:58;32.30;;;23.60;;
51010;SDS011;37038;50.182;8.624;2022-11-28T07:39:20;33.55;;;23.63;;
51010;SDS011;37038;50.182;8.624;2022-11-28T07:42:47;31.75;;;22.92;;
51010;SDS011;37038;50.182;8.624;2022-11-28T07:46:06;33.97;;;22.67;;
51010;SDS011;37038;50.182;8.624;2022-11-28T07:49:49;33.03;;;23.55;;
51010;SDS011;37038;50.182;8.624;2022-11-28T07:53:34;31.58;;;23.88;;
51010;SDS011;37038;50.182;8.624;2022-11-28T07:57:18;32.05;;;23.67;;
51010;SDS011;37038;50.182;8.624;2022-11-28T08:01:13;35.05;;;24.30;;
51010;SDS011;37038;50.182;8.624;2022-11-28T08:04:50;32.35;;;23.08;;
51010;SDS011;37038;50.182;8.624;2022-11-28T08:08:03;34.30;;;24.05;;
51010;SDS011;37038;50.182;8.624;2022-11-28T08:11:17;35.75;;;22.90;;
51010;SDS011;37038;50.182;8.624;2022-11-28T08:15:02;37.80;;;23.25;;
51010;SDS011;37038;50.182;8.624;2022-11-28T08:18:08;35.55;;;24.35;;
51010;SDS011;37038;50.182;8.624;2022-11-28T08:21:32;33.53;;;25.17;;
51010;SDS011;37038;50.182;8.624;2022-11-28T08:32:02;35.75;;;24.98;;
51010;SDS011;37038;50.182;8.624;2022-11-28T08:38:47;34.65;;;24.48;;
51010;SDS011;37038;50.182;8.624;2022-11-28T08:42:13;35.40;;;25.10;;
51010;SDS011;37038;50.182;8.624;2022-11-28T08:45:44;32.85;;;23.65;;
51010;SDS011;37038;50.182;8.624;2022-11-28T08:49:38;32.00;;;23.88;;
51010;SDS011;37038;50.182;8.624;2022-11-28T08:52:36;32.05;;;22.95;;
51010;SDS011;37038;50.182;8.624;2022-11-28T08:55:37;31.80;;;24.05;;
51010;SDS011;37038;50.182;8.624;2022-11-28T08:58:58;34.92;;;24.23;;
51010;SDS011;37038;50.182;8.624;2022-11-28T09:02:23;32.13;;;24.48;;
51010;SDS011;37038;50.182;8.624;2022-11-28T09:05:58;34.60;;;24.55;;
51010;SDS011;37038;50.182;8.624;2022-11-28T09:09:23;33.35;;;24.38;;
51010;SDS011;37038;50.182;8.624;2022-11-28T09:12:57;31.77;;;23.45;;
51010;SDS011;37038;50.182;8.624;2022-11-28T09:16:53;32.10;;;23.60;;
51010;SDS011;37038;50.182;8.624;2022-11-28T09:28:23;29.05;;;21.05;;
51010;SDS011;37038;50.182;8.624;2022-11-28T09:36:01;28.52;;;22.73;;
51010;SDS011;37038;50.182;8.624;2022-11-28T09:39:53;28.65;;;21.20;;
51010;SDS011;37038;50.182;8.624;2022-11-28T09:48:00;26.17;;;20.35;;
51010;SDS011;37038;50.182;8.624;2022-11-28T09:56:58;26.98;;;20.38;;
51010;SDS011;37038;50.182;8.624;2022-11-28T10:01:06;26.85;;;20.25;;
51010;SDS011;37038;50.182;8.624;2022-11-28T10:25:19;27.60;;;20.13;;
51010;SDS011;37038;50.182;8.624;2022-11-28T10:33:48;27.17;;;20.20;;
51010;SDS011;37038;50.182;8.624;2022-11-28T11:00:07;24.40;;;19.13;;
51010;SDS011;37038;50.182;8.624;2022-11-28T11:12:31;28.85;;;20.90;;
51010;SDS011;37038;50.182;8.624;2022-11-28T11:15:35;27.80;;;20.20;;
51010;SDS011;37038;50.182;8.624;2022-11-28T11:18:49;29.42;;;21.15;;
51010;SDS011;37038;50.182;8.624;2022-11-28T11:22:31;29.30;;;22.20;;
51010;SDS011;37038;50.182;8.624;2022-11-28T11:25:24;28.20;;;21.58;;
51010;SDS011;37038;50.182;8.624;2022-11-28T11:29:14;27.92;;;20.65;;
51010;SDS011;37038;50.182;8.624;2022-11-28T11:32:40;28.38;;;20.08;;
51010;SDS011;37038;50.182;8.624;2022-11-28T11:35:43;28.40;;;20.65;;
51010;SDS011;37038;50.182;8.624;2022-11-28T11:39:51;30.77;;;21.63;;
51010;SDS011;37038;50.182;8.624;2022-11-28T11:42:50;24.00;;;20.13;;
51010;SDS011;37038;50.182;8.624;2022-11-28T12:00:30;26.15;;;19.42;;
51010;SDS011;37038;50.182;8.624;2022-11-28T12:04:45;27.17;;;19.52;;
51010;SDS011;37038;50.182;8.624;2022-11-28T12:13:30;23.67;;;19.52;;
51010;SDS011;37038;50.182;8.624;2022-11-28T12:26:38;28.00;;;22.35;;
51010;SDS011;37038;50.182;8.624;2022-11-28T12:33:36;35.13;;;24.10;;
51010;SDS011;37038;50.182;8.624;2022-11-28T14:07:30;37.03;;;29.13;;
51010;SDS011;37038;50.182;8.624;2022-11-28T14:22:38;35.70;;;25.85;;
51010;SDS011;37038;50.182;8.624;2022-11-28T14:26:44;31.57;;;24.77;;
51010;SDS011;37038;50.182;8.624;2022-11-28T14:39:52;37.53;;;27.60;;
51010;SDS011;37038;50.182;8.624;2022-11-28T14:54:40;39.05;;;29.38;;
51010;SDS011;37038;50.182;8.624;2022-11-28T14:58:28;47.22;;;31.60;;
51010;SDS011;37038;50.182;8.624;2022-11-28T15:06:42;43.70;;;29.30;;
51010;SDS011;37038;50.182;8.624;2022-11-28T15:36:41;40.33;;;29.37;;
51010;SDS011;37038;50.182;8.624;2022-11-28T16:18:31;48.87;;;35.37;;
51010;SDS011;37038;50.182;8.624;2022-11-28T16:21:25;51.97;;;36.25;;
51010;SDS011;37038;50.182;8.624;2022-11-28T16:24:55;53.65;;;36.97;;
51010;SDS011;37038;50.182;8.624;2022-11-28T16:31:33;46.22;;;33.47;;
51010;SDS011;37038;50.182;8.624;2022-11-28T16:34:53;51.28;;;34.95;;
51010;SDS011;37038;50.182;8.624;2022-11-28T16:38:22;54.42;;;36.30;;
51010;SDS011;37038;50.182;8.624;2022-11-28T16:41:32;51.42;;;35.72;;
51010;SDS011;37038;50.182;8.624;2022-11-28T16:44:22;51.55;;;34.13;;
51010;SDS011;37038;50.182;8.624;2022-11-28T16:47:24;42.65;;;32.13;;
51010;SDS011;37038;50.182;8.624;2022-11-28T16:50:17;41.10;;;32.92;;
51010;SDS011;37038;50.182;8.624;2022-11-28T16:53:40;44.03;;;31.42;;
51010;SDS011;37038;50.182;8.624;2022-11-28T16:59:22;43.75;;;32.42;;
51010;SDS011;37038;50.182;8.624;2022-11-28T17:02:15;51.50;;;33.97;;
51010;SDS011;37038;50.182;8.624;2022-11-28T17:05:05;44.13;;;32.40;;
51010;SDS011;37038;50.182;8.624;2022-11-28T17:07:58;51.95;;;34.08;;
51010;SDS011;37038;50.182;8.624;2022-11-28T17:10:48;54.10;;;36.25;;
51010;SDS011;37038;50.182;8.624;2022-11-28T17:13:39;58.40;;;41.53;;
51010;SDS011;37038;50.182;8.624;2022-11-28T17:16:30;55.58;;;39.13;;
51010;SDS011;37038;50.182;8.624;2022-11-28T17:19:20;57.80;;;39.88;;
51010;SDS011;37038;50.182;8.624;2022-11-28T17:22:18;57.55;;;38.58;;
51010;SDS011;37038;50.182;8.624;2022-11-28T17:25:13;57.45;;;39.25;;
51010;SDS011;37038;50.182;8.624;2022-11-28T17:28:11;56.30;;;36.47;;
51010;SDS011;37038;50.182;8.624;2022-11-28T17:31:08;54.35;;;39.15;;
51010;SDS011;37038;50.182;8.624;2022-11-28T17:34:26;53.40;;;35.75;;
51010;SDS011;37038;50.182;8.624;2022-11-28T17:37:17;59.95;;;36.90;;
51010;SDS011;37038;50.182;8.624;2022-11-28T17:40:06;54.97;;;38.47;;
51010;SDS011;37038;50.182;8.624;2022-11-28T17:43:23;55.45;;;39.83;;
51010;SDS011;37038;50.182;8.624;2022-11-28T17:46:50;57.20;;;37.72;;
51010;SDS011;37038;50.182;8.624;2022-11-28T17:49:45;63.92;;;41.42;;
51010;SDS011;37038;50.182;8.624;2022-11-28T17:52:46;53.70;;;39.50;;
51010;SDS011;37038;50.182;8.624;2022-11-28T17:55:42;57.15;;;38.15;;
51010;SDS011;37038;50.182;8.624;2022-11-28T17:58:53;55.25;;;37.70;;
51010;SDS011;37038;50.182;8.624;2022-11-28T18:02:10;55.67;;;38.38;;
51010;SDS011;37038;50.182;8.624;2022-11-28T18:04:59;60.75;;;40.60;;
51010;SDS011;37038;50.182;8.624;2022-11-28T18:08:13;56.08;;;39.10;;
51010;SDS011;37038;50.182;8.624;2022-11-28T18:11:20;52.20;;;38.28;;
51010;SDS011;37038;50.182;8.624;2022-11-28T18:14:41;52.88;;;36.47;;
51010;SDS011;37038;50.182;8.624;2022-11-28T18:17:44;54.58;;;36.92;;
51010;SDS011;37038;50.182;8.624;2022-11-28T18:20:57;54.20;;;38.00;;
51010;SDS011;37038;50.182;8.624;2022-11-28T18:23:49;49.17;;;34.38;;
51010;SDS011;37038;50.182;8.624;2022-11-28T18:27:02;54.15;;;38.72;;
51010;SDS011;37038;50.182;8.624;2022-11-28T18:33:33;56.03;;;37.35;;
51010;SDS011;37038;50.182;8.624;2022-11-28T18:36:47;62.95;;;40.97;;
51010;SDS011;37038;50.182;8.624;2022-11-28T18:40:06;57.35;;;37.40;;
51010;SDS011;37038;50.182;8.624;2022-11-28T18:43:17;58.33;;;40.00;;
51010;SDS011;37038;50.182;8.624;2022-11-28T18:46:59;56.72;;;38.58;;
51010;SDS011;37038;50.182;8.624;2022-11-28T18:49:53;61.58;;;39.78;;
51010;SDS011;37038;50.182;8.624;2022-11-28T18:53:11;60.30;;;39.95;;
51010;SDS011;37038;50.182;8.624;2022-11-28T18:56:20;59.67;;;39.33;;
51010;SDS011;37038;50.182;8.624;2022-11-28T18:59:15;57.15;;;38.20;;
51010;SDS011;37038;50.182;8.624;2022-11-28T19:02:20;53.13;;;37.00;;
51010;SDS011;37038;50.182;8.624;2022-11-28T19:05:12;52.30;;;37.17;;
51010;SDS011;37038;50.182;8.624;2022-11-28T19:08:00;50.33;;;34.95;;
51010;SDS011;37038;50.182;8.624;2022-11-28T19:10:56;53.70;;;37.05;;
51010;SDS011;37038;50.182;8.624;2022-11-28T19:13:53;49.90;;;36.35;;
51010;SDS011;37038;50.182;8.624;2022-11-28T19:16:55;50.70;;;37.22;;
51010;SDS011;37038;50.182;8.624;2022-11-28T19:19:54;55.40;;;36.50;;
51010;SDS011;37038;50.182;8.624;2022-11-28T19:22:43;52.67;;;37.45;;
51010;SDS011;37038;50.182;8.624;2022-11-28T19:25:40;49.60;;;37.25;;
51010;SDS011;37038;50.182;8.624;2022-11-28T19:28:39;55.17;;;35.53;;
51010;SDS011;37038;50.182;8.624;2022-11-28T19:31:29;54.45;;;37.40;;
51010;SDS011;37038;50.182;8.624;2022-11-28T19:34:21;55.58;;;36.67;;
51010;SDS011;37038;50.182;8.624;2022-11-28T19:37:12;50.67;;;36.38;;
51010;SDS011;37038;50.182;8.624;2022-11-28T19:40:04;49.55;;;35.83;;
51010;SDS011;37038;50.182;8.624;2022-11-28T19:42:56;48.05;;;32.97;;
51010;SDS011;37038;50.182;8.624;2022-11-28T19:45:54;48.58;;;34.67;;
51010;SDS011;37038;50.182;8.624;2022-11-28T19:48:51;49.88;;;34.33;;
51010;SDS011;37038;50.182;8.624;2022-11-28T19:51:47;51.53;;;36.38;;
51010;SDS011;37038;50.182;8.624;2022-11-28T19:54:43;50.25;;;34.53;;
51010;SDS011;37038;50.182;8.624;2022-11-28T19:57:51;61.22;;;40.55;;
51010;SDS011;37038;50.182;8.624;2022-11-28T20:00:44;67.53;;;44.50;;
51010;SDS011;37038;50.182;8.624;2022-11-28T20:03:38;72.78;;;49.13;;
51010;SDS011;37038;50.182;8.624;2022-11-28T20:06:40;69.97;;;46.08;;
51010;SDS011;37038;50.182;8.624;2022-11-28T20:09:33;76.15;;;49.45;;
51010;SDS011;37038;50.182;8.624;2022-11-28T20:12:24;79.15;;;52.35;;
51010;SDS011;37038;50.182;8.624;2022-11-28T20:15:13;77.40;;;50.00;;
51010;SDS011;37038;50.182;8.624;2022-11-28T20:18:04;77.90;;;47.50;;
51010;SDS011;37038;50.182;8.624;2022-11-28T20:24:28;70.88;;;47.58;;
51010;SDS011;37038;50.182;8.624;2022-11-28T20:27:24;75.35;;;47.72;;
51010;SDS011;37038;50.182;8.624;2022-11-28T20:30:13;79.60;;;49.85;;
51010;SDS011;37038;50.182;8.624;2022-11-28T20:33:01;70.75;;;47.13;;
51010;SDS011;37038;50.182;8.624;2022-11-28T20:35:49;71.85;;;45.88;;
51010;SDS011;37038;50.182;8.624;2022-11-28T20:38:45;67.97;;;47.40;;
51010;SDS011;37038;50.182;8.624;2022-11-28T20:41:34;67.85;;;44.53;;
51010;SDS011;37038;50.182;8.624;2022-11-28T20:44:26;74.05;;;45.67;;
51010;SDS011;37038;50.182;8.624;2022-11-28T20:47:14;72.25;;;44.72;;
51010;SDS011;37038;50.182;8.624;2022-11-28T20:50:05;72.75;;;44.70;;
51010;SDS011;37038;50.182;8.624;2022-11-28T20:52:54;65.30;;;43.70;;
51010;SDS011;37038;50.182;8.624;2022-11-28T20:55:43;71.05;;;43.75;;
51010;SDS011;37038;50.182;8.624;2022-11-28T20:58:36;67.15;;;45.55;;
51010;SDS011;37038;50.182;8.624;2022-11-28T21:01:27;70.25;;;45.42;;
51010;SDS011;37038;50.182;8.624;2022-11-28T21:04:21;67.60;;;43.17;;
51010;SDS011;37038;50.182;8.624;2022-11-28T21:07:14;61.05;;;41.63;;
51010;SDS011;37038;50.182;8.624;2022-11-28T21:10:32;71.40;;;42.70;;
51010;SDS011;37038;50.182;8.624;2022-11-28T21:14:48;70.72;;;43.85;;
51010;SDS011;37038;50.182;8.624;2022-11-28T21:18:34;64.60;;;42.85;;
51010;SDS011;37038;50.182;8.624;2022-11-28T21:23:15;69.47;;;44.15;;
51010;SDS011;37038;50.182;8.624;2022-11-28T21:27:31;63.22;;;41.30;;
51010;SDS011;37038;50.182;8.624;2022-11-28T21:40:09;70.65;;;44.10;;
51010;SDS011;37038;50.182;8.624;2022-11-28T21:47:57;74.57;;;47.97;;
51010;SDS011;37038;50.182;8.624;2022-11-28T21:51:32;64.80;;;44.58;;
51010;SDS011;37038;50.182;8.624;2022-11-28T21:54:54;65.85;;;40.67;;
51010;SDS011;37038;50.182;8.624;2022-11-28T21:58:17;62.20;;;39.97;;
51010;SDS011;37038;50.182;8.624;2022-11-28T22:01:41;57.35;;;38.38;;
51010;SDS011;37038;50.182;8.624;2022-11-28T22:05:02;66.30;;;39.80;;
51010;SDS011;37038;50.182;8.624;2022-11-28T22:08:18;60.13;;;40.22;;
51010;SDS011;37038;50.182;8.624;2022-11-28T22:15:40;56.83;;;37.50;;
51010;SDS011;37038;50.182;8.624;2022-11-28T22:18:32;56.85;;;36.70;;
51010;SDS011;37038;50.182;8.624;2022-11-28T22:21:21;54.60;;;38.38;;
51010;SDS011;37038;50.182;8.624;2022-11-28T22:24:31;65.40;;;39.55;;
51010;SDS011;37038;50.182;8.624;2022-11-28T22:27:19;61.88;;;39.20;;
51010;SDS011;37038;50.182;8.624;2022-11-28T22:30:08;60.83;;;38.28;;
51010;SDS011;37038;50.182;8.624;2022-11-28T22:32:56;59.13;;;39.75;;
51010;SDS011;37038;50.182;8.624;2022-11-28T22:35:44;59.05;;;38.70;;
51010;SDS011;37038;50.182;8.624;2022-11-28T22:38:32;60.25;;;39.17;;
51010;SDS011;37038;50.182;8.624;2022-11-28T22:41:20;62.35;;;39.13;;
51010;SDS011;37038;50.182;8.624;2022-11-28T22:44:15;60.92;;;41.50;;
51010;SDS011;37038;50.182;8.624;2022-11-28T22:47:03;63.92;;;41.05;;
51010;SDS011;37038;50.182;8.624;2022-11-28T22:49:51;58.63;;;39.25;;
51010;SDS011;37038;50.182;8.624;2022-11-28T22:52:41;58.22;;;38.63;;
51010;SDS011;37038;50.182;8.624;2022-11-28T22:55:30;55.45;;;37.45;;
51010;SDS011;37038;50.182;8.624;2022-11-28T22:58:23;59.63;;;39.75;;
51010;SDS011;37038;50.182;8.624;2022-11-28T23:01:11;59.42;;;37.97;;
51010;SDS011;37038;50.182;8.624;2022-11-28T23:06:52;63.88;;;38.67;;
51010;SDS011;37038;50.182;8.624;2022-11-28T23:09:40;63.40;;;40.45;;
51010;SDS011;37038;50.182;8.624;2022-11-28T23:12:28;65.70;;;41.42;;
51010;SDS011;37038;50.182;8.624;2022-11-28T23:15:16;67.18;;;41.05;;
51010;SDS011;37038;50.182;8.624;2022-11-28T23:18:04;60.28;;;40.53;;
51010;SDS011;37038;50.182;8.624;2022-11-28T23:20:54;61.03;;;40.45;;
51010;SDS011;37038;50.182;8.624;2022-11-28T23:23:42;62.33;;;41.08;;
51010;SDS011;37038;50.182;8.624;2022-11-28T23:26:32;64.07;;;41.38;;
51010;SDS011;37038;50.182;8.624;2022-11-28T23:29:21;67.00;;;41.42;;
51010;SDS011;37038;50.182;8.624;2022-11-28T23:32:09;65.85;;;40.15;;
51010;SDS011;37038;50.182;8.624;2022-11-28T23:34:57;60.40;;;38.95;;
51010;SDS011;37038;50.182;8.624;2022-11-28T23:37:46;72.75;;;43.45;;
51010;SDS011;37038;50.182;8.624;2022-11-28T23:40:34;76.40;;;44.72;;
51010;SDS011;37038;50.182;8.624;2022-11-28T23:43:22;89.43;;;48.50;;
51010;SDS011;37038;50.182;8.624;2022-11-28T23:46:10;81.55;;;46.92;;
51010;SDS011;37038;50.182;8.624;2022-11-28T23:49:00;84.28;;;48.10;;
51010;SDS011;37038;50.182;8.624;2022-11-28T23:51:51;87.55;;;50.00;;
51010;SDS011;37038;50.182;8.624;2022-11-28T23:54:39;76.03;;;44.50;;
51010;SDS011;37038;50.182;8.624;2022-11-28T23:57:28;74.85;;;42.03;;
